createdAt,value
2018-11-11T00:00:23.283Z,99822.99
2018-11-11T00:02:53.337Z,99813.82
2018-11-11T00:05:22.243Z,99821.97
2018-11-11T00:07:51.170Z,99819.39
2018-11-11T00:10:20.058Z,99814.33
2018-11-11T00:12:48.951Z,99826.41
2018-11-11T00:15:18.451Z,99825.53
2018-11-11T00:17:48.154Z,99829.98
2018-11-11T00:20:17.532Z,99817.55
2018-11-11T00:22:46.440Z,99824.34
2018-11-11T00:25:15.343Z,99819.81
2018-11-11T00:27:44.257Z,99817.23
2018-11-11T00:30:20.065Z,99809.94
2018-11-11T00:32:49.010Z,99806.51
2018-11-11T00:35:17.917Z,99803.97
2018-11-11T00:37:46.813Z,99799.59
2018-11-11T00:40:16.419Z,99792.12
2018-11-11T00:42:45.935Z,99794.72
2018-11-11T00:45:15.660Z,99798.45
2018-11-11T00:47:45.384Z,99793.88
2018-11-11T00:50:14.317Z,99797.79
2018-11-11T00:52:43.212Z,99793.03
2018-11-11T00:55:14.369Z,99805.15
2018-11-11T00:57:43.678Z,99806.89
2018-11-11T01:00:17.414Z,99794.48
2018-11-11T01:02:46.680Z,99806.11
2018-11-11T01:05:15.895Z,99806.12
2018-11-11T01:07:44.813Z,99797.03
2018-11-11T01:10:15.214Z,99802.14
2018-11-11T01:12:44.495Z,99795.85
2018-11-11T01:15:14.631Z,99802.70
2018-11-11T01:17:43.562Z,99802.03
2018-11-11T01:20:13.663Z,99798.13
2018-11-11T01:22:42.815Z,99799.99
2018-11-11T01:25:13.258Z,99799.88
2018-11-11T01:27:42.273Z,99800.17
2018-11-11T01:30:11.204Z,99799.32
2018-11-11T01:32:40.197Z,99804.17
2018-11-11T01:35:13.749Z,99799.70
2018-11-11T01:37:43.023Z,99808.02
2018-11-11T01:40:12.007Z,99815.84
2018-11-11T01:42:40.960Z,99813.64
2018-11-11T01:45:11.769Z,99819.13
2018-11-11T01:47:40.659Z,99825.06
2018-11-11T01:50:10.573Z,99821.33
2018-11-11T01:52:39.738Z,99820.65
2018-11-11T01:55:09.429Z,99830.84
2018-11-11T01:57:38.593Z,99824.05
2018-11-11T02:00:10.174Z,99816.91
2018-11-11T02:02:39.248Z,99815.90
2018-11-11T02:05:09.473Z,99810.63
2018-11-11T02:07:38.421Z,99812.00
2018-11-11T02:10:08.477Z,99807.70
2018-11-11T02:12:37.855Z,99808.07
2018-11-11T02:15:07.570Z,99807.23
2018-11-11T02:17:36.492Z,99810.06
2018-11-11T02:20:07.599Z,99812.45
2018-11-11T02:22:36.522Z,99804.30
2018-11-11T02:25:06.143Z,99810.41
2018-11-11T02:27:35.179Z,99798.58
2018-11-11T02:30:04.540Z,99800.38
2018-11-11T02:32:33.471Z,99794.16
2018-11-11T02:35:02.402Z,99790.58
2018-11-11T02:37:31.666Z,99792.92
2018-11-11T02:40:00.569Z,99783.46
2018-11-11T02:42:29.502Z,99782.09
2018-11-11T02:44:58.410Z,99792.96
2018-11-11T02:47:27.361Z,99785.20
2018-11-11T02:49:56.286Z,99783.50
2018-11-11T02:52:25.186Z,99788.38
2018-11-11T02:54:54.163Z,99794.87
2018-11-11T02:57:23.105Z,99797.09
2018-11-11T02:59:52.042Z,99801.34
2018-11-11T03:02:20.950Z,99804.05
2018-11-11T03:04:49.938Z,99799.80
2018-11-11T03:07:18.839Z,99798.58
2018-11-11T03:09:47.765Z,99795.17
2018-11-11T03:12:16.662Z,99798.91
2018-11-11T03:14:45.596Z,99796.37
2018-11-11T03:17:14.499Z,99793.14
2018-11-11T03:19:43.444Z,99803.37
2018-11-11T03:22:12.387Z,99803.71
2018-11-11T03:24:41.316Z,99800.31
2018-11-11T03:27:10.205Z,99803.33
2018-11-11T03:29:39.146Z,99802.98
2018-11-11T03:32:08.128Z,99803.50
2018-11-11T03:34:37.052Z,99799.93
2018-11-11T03:37:06.500Z,99808.09
2018-11-11T03:39:35.410Z,99805.87
2018-11-11T03:42:04.617Z,99807.41
2018-11-11T03:44:33.604Z,99807.75
2018-11-11T03:47:02.490Z,99789.57
2018-11-11T03:49:31.399Z,99790.76
2018-11-11T03:52:00.330Z,99790.94
2018-11-11T03:54:29.227Z,99788.26
2018-11-11T03:56:58.184Z,99798.23
2018-11-11T03:59:27.070Z,99798.41
2018-11-11T04:01:55.970Z,99799.30
2018-11-11T04:04:24.848Z,99799.51
2018-11-11T04:06:53.766Z,99790.64
2018-11-11T04:09:22.657Z,99790.13
2018-11-11T04:11:51.602Z,99788.11
2018-11-11T04:14:20.512Z,99796.75
2018-11-11T04:16:49.405Z,99793.52
2018-11-11T04:19:18.285Z,99796.23
2018-11-11T04:21:47.210Z,99798.06
2018-11-11T04:24:16.782Z,99796.37
2018-11-11T04:26:45.757Z,99799.64
2018-11-11T04:29:14.657Z,99796.23
2018-11-11T04:31:43.552Z,99797.03
2018-11-11T04:34:12.479Z,99789.45
2018-11-11T04:36:41.405Z,99785.89
2018-11-11T04:39:11.562Z,99790.36
2018-11-11T04:41:40.456Z,99787.47
2018-11-11T04:44:09.464Z,99791.38
2018-11-11T04:46:38.359Z,99788.50
2018-11-11T04:49:07.398Z,99794.78
2018-11-11T04:51:36.216Z,99797.05
2018-11-11T04:54:05.781Z,99791.77
2018-11-11T04:56:34.698Z,99788.20
2018-11-11T04:59:03.693Z,99796.25
2018-11-11T05:01:32.587Z,99786.41
2018-11-11T05:04:01.430Z,99797.96
2018-11-11T05:06:30.359Z,99789.16
2018-11-11T05:08:59.255Z,99789.06
2018-11-11T05:11:28.217Z,99796.02
2018-11-11T05:13:57.132Z,99791.77
2018-11-11T05:16:26.079Z,99792.41
2018-11-11T05:18:54.992Z,99803.63
2018-11-11T05:21:23.927Z,99785.27
2018-11-11T05:23:52.964Z,99786.00
2018-11-11T05:26:21.943Z,99786.80
2018-11-11T05:28:50.878Z,99797.20
2018-11-11T05:31:19.802Z,99791.48
2018-11-11T05:33:48.847Z,99806.89
2018-11-11T05:36:17.756Z,99803.66
2018-11-11T05:38:46.700Z,99814.58
2018-11-11T05:41:15.604Z,99805.58
2018-11-11T05:43:44.640Z,99813.39
2018-11-11T05:46:13.524Z,99806.77
2018-11-11T05:48:42.463Z,99807.70
2018-11-11T05:51:11.360Z,99817.67
2018-11-11T05:53:40.300Z,99814.23
2018-11-11T05:56:09.227Z,99813.05
2018-11-11T05:58:38.173Z,99811.56
2018-11-11T06:01:07.110Z,99818.48
2018-11-11T06:03:36.038Z,99815.98
2018-11-11T06:06:05.370Z,99821.11
2018-11-11T06:08:34.338Z,99816.90
2018-11-11T06:11:03.226Z,99818.70
2018-11-11T06:13:32.174Z,99822.47
2018-11-11T06:16:01.081Z,99824.84
2018-11-11T06:18:29.991Z,99823.14
2018-11-11T06:20:58.931Z,99820.63
2018-11-11T06:23:27.893Z,99824.53
2018-11-11T06:25:56.846Z,99824.70
2018-11-11T06:28:25.777Z,99822.33
2018-11-11T06:30:54.684Z,99829.62
2018-11-11T06:36:06.945Z,99823.86
2018-11-11T06:38:35.881Z,99826.26
2018-11-11T06:41:04.908Z,99832.17
2018-11-11T06:43:33.831Z,99833.73
2018-11-11T06:46:02.789Z,99828.09
2018-11-11T06:48:31.756Z,99833.70
2018-11-11T06:51:00.661Z,99832.03
2018-11-11T06:53:29.592Z,99837.80
2018-11-11T06:55:58.526Z,99840.53
2018-11-11T06:58:27.411Z,99848.19
2018-11-11T07:00:56.321Z,99854.61
2018-11-11T07:04:03.738Z,99867.38
2018-11-11T07:06:33.048Z,99855.51
2018-11-11T07:09:01.962Z,99857.00
2018-11-11T07:11:30.878Z,99873.28
2018-11-11T07:13:59.797Z,99870.09
2018-11-11T07:16:28.741Z,99876.02
2018-11-11T07:18:57.652Z,99875.66
2018-11-11T07:21:26.568Z,99872.13
2018-11-11T07:23:55.502Z,99874.48
2018-11-11T07:26:24.424Z,99873.95
2018-11-11T07:28:53.319Z,99880.23
2018-11-11T07:31:22.240Z,99890.25
2018-11-11T07:33:51.199Z,99895.51
2018-11-11T07:36:20.109Z,99880.23
2018-11-11T07:38:49.050Z,99884.50
2018-11-11T07:41:17.980Z,99884.50
2018-11-11T07:43:46.893Z,99895.16
2018-11-11T07:46:15.783Z,99889.74
2018-11-11T07:48:44.712Z,99907.38
2018-11-11T07:51:13.619Z,99894.13
2018-11-11T07:53:42.545Z,99903.30
2018-11-11T07:56:11.555Z,99899.88
2018-11-11T07:58:40.492Z,99896.18
2018-11-11T08:01:09.742Z,99904.96
2018-11-11T08:03:38.706Z,99928.25
2018-11-11T08:06:07.938Z,99917.69
2018-11-11T08:08:36.889Z,99926.88
2018-11-11T08:11:42.364Z,99925.50
2018-11-11T08:14:11.341Z,99931.95
2018-11-11T08:16:40.302Z,99931.45
2018-11-11T08:19:09.320Z,99932.31
2018-11-11T08:21:38.233Z,99945.20
2018-11-11T08:24:07.277Z,99938.58
2018-11-11T08:26:36.211Z,99937.56
2018-11-11T08:29:05.391Z,99940.95
2018-11-11T08:31:34.305Z,99938.72
2018-11-11T08:34:03.232Z,99937.39
2018-11-11T08:36:32.168Z,99947.05
2018-11-11T08:39:01.722Z,99951.80
2018-11-11T08:41:30.649Z,99963.86
2018-11-11T08:43:59.552Z,99957.41
2018-11-11T08:46:28.466Z,99944.48
2018-11-11T08:48:57.405Z,99963.84
2018-11-11T08:51:26.328Z,99971.48
2018-11-11T08:53:55.243Z,99972.79
2018-11-11T08:56:24.142Z,99960.95
2018-11-11T08:58:53.092Z,99966.84
2018-11-11T09:01:22.228Z,99967.89
2018-11-11T09:03:51.463Z,99968.38
2018-11-11T09:06:20.740Z,99959.52
2018-11-11T09:08:49.860Z,99972.36
2018-11-11T09:11:19.027Z,99989.58
2018-11-11T09:13:48.442Z,99987.72
2018-11-11T09:16:17.436Z,99989.73
2018-11-11T09:18:46.363Z,99986.89
2018-11-11T09:21:15.313Z,99992.92
2018-11-11T09:23:44.260Z,99989.08
2018-11-11T09:26:13.102Z,99991.45
2018-11-11T09:28:42.109Z,99997.79
2018-11-11T09:31:11.233Z,100008.10
2018-11-11T09:33:40.318Z,100011.98
2018-11-11T09:36:10.167Z,100004.53
2018-11-11T09:38:39.047Z,100001.45
2018-11-11T09:41:09.123Z,99988.39
2018-11-11T09:43:38.139Z,99984.45
2018-11-11T09:46:07.306Z,99984.94
2018-11-11T09:48:36.240Z,99992.24
2018-11-11T09:51:05.218Z,99995.25
2018-11-11T09:53:34.162Z,99997.03
2018-11-11T09:56:03.036Z,100005.16
2018-11-11T09:58:31.988Z,100010.97
2018-11-11T10:01:00.955Z,100019.59
2018-11-11T10:03:40.258Z,100012.40
2018-11-11T10:06:43.431Z,100021.98
2018-11-11T10:09:30.016Z,100014.23
2018-11-11T10:12:03.837Z,100022.38
2018-11-11T10:14:39.063Z,100013.09
2018-11-11T10:17:12.761Z,100012.03
2018-11-11T10:19:45.419Z,100008.44
2018-11-11T10:22:39.254Z,100008.92
2018-11-11T10:25:24.369Z,100019.38
2018-11-11T10:28:11.417Z,100018.42
2018-11-11T10:31:14.628Z,100014.69
2018-11-11T10:33:46.769Z,100016.44
2018-11-11T10:36:28.148Z,100025.50
2018-11-11T10:39:06.057Z,100023.22
2018-11-11T10:41:42.620Z,100029.66
2018-11-11T10:44:15.936Z,100041.69
2018-11-11T10:47:00.372Z,100051.56
2018-11-11T10:49:43.477Z,100059.73
2018-11-11T10:52:12.486Z,100062.86
2018-11-11T10:54:41.326Z,100076.14
2018-11-11T10:57:10.342Z,100076.22
2018-11-11T10:59:39.308Z,100074.75
2018-11-11T11:02:27.506Z,100073.48
2018-11-11T11:05:12.045Z,100088.63
2018-11-11T11:07:40.961Z,100081.42
2018-11-11T11:10:10.022Z,100087.08
2018-11-11T11:12:39.038Z,100072.80
2018-11-11T11:15:09.360Z,100079.11
2018-11-11T11:17:38.368Z,100071.65
2018-11-11T11:20:07.988Z,100071.32
2018-11-11T11:22:36.885Z,100076.34
2018-11-11T11:25:06.501Z,100074.20
2018-11-11T11:27:35.455Z,100068.31
2018-11-11T11:30:04.941Z,100070.17
2018-11-11T11:32:33.949Z,100068.16
2018-11-11T11:35:02.837Z,100070.03
2018-11-11T11:37:31.733Z,100086.74
2018-11-11T11:40:00.727Z,100098.17
2018-11-11T11:42:29.586Z,100096.26
2018-11-11T11:44:58.602Z,100092.84
2018-11-11T11:47:27.673Z,100101.95
2018-11-11T11:49:56.506Z,100096.67
2018-11-11T11:52:25.452Z,100109.56
2018-11-11T11:54:54.368Z,100106.38
2018-11-11T11:57:23.349Z,100091.52
2018-11-11T11:59:52.252Z,100097.38
2018-11-11T12:02:21.294Z,100090.47
2018-11-11T12:04:50.131Z,100101.05
2018-11-11T12:07:19.049Z,100098.46
2018-11-11T12:09:48.002Z,100107.52
2018-11-11T12:12:16.933Z,100106.28
2018-11-11T12:14:45.927Z,100117.62
2018-11-11T12:17:14.965Z,100110.20
2018-11-11T12:19:43.814Z,100104.52
2018-11-11T12:22:12.755Z,100109.80
2018-11-11T12:24:41.696Z,100106.03
2018-11-11T12:27:10.761Z,100112.52
2018-11-11T12:29:39.733Z,100084.93
2018-11-11T12:32:08.872Z,100080.50
2018-11-11T12:34:37.821Z,100082.55
2018-11-11T12:37:07.158Z,100103.88
2018-11-11T12:39:36.180Z,100109.17
2018-11-11T12:42:05.072Z,100103.00
2018-11-11T12:44:34.049Z,100109.69
2018-11-11T12:47:02.931Z,100131.44
2018-11-11T12:49:31.903Z,100122.00
2018-11-11T12:52:00.791Z,100113.30
2018-11-11T12:54:29.846Z,100116.70
2018-11-11T12:56:58.752Z,100125.23
2018-11-11T12:59:27.742Z,100112.84
2018-11-11T13:01:56.828Z,100117.12
2018-11-11T13:04:25.708Z,100111.73
2018-11-11T13:06:54.623Z,100106.39
2018-11-11T13:09:23.643Z,100098.50
2018-11-11T13:11:52.558Z,100110.92
2018-11-11T13:14:21.425Z,100109.36
2018-11-11T13:16:50.365Z,100112.64
2018-11-11T13:19:19.298Z,100111.66
2018-11-11T13:21:48.249Z,100108.88
2018-11-11T13:24:17.210Z,100115.03
2018-11-11T13:26:46.150Z,100126.98
2018-11-11T13:29:15.235Z,100133.23
2018-11-11T13:31:44.226Z,100133.56
2018-11-11T13:34:13.153Z,100139.13
2018-11-11T13:36:42.147Z,100134.52
2018-11-11T13:39:13.028Z,100157.90
2018-11-11T13:41:42.638Z,100144.52
2018-11-11T13:44:11.573Z,100130.84
2018-11-11T13:46:40.665Z,100120.80
2018-11-11T13:49:09.584Z,100118.42
2018-11-11T13:51:38.634Z,100135.07
2018-11-11T13:54:07.932Z,100128.77
2018-11-11T13:56:37.140Z,100133.40
2018-11-11T13:59:06.352Z,100134.31
2018-11-11T14:01:35.308Z,100141.95
2018-11-11T14:04:04.399Z,100151.89
2018-11-11T14:06:33.503Z,100151.82
2018-11-11T14:09:02.582Z,100170.23
2018-11-11T14:11:34.160Z,100189.47
2018-11-11T14:14:03.171Z,100182.34
2018-11-11T14:16:32.145Z,100182.00
2018-11-11T14:19:01.373Z,100197.66
2018-11-11T14:21:30.228Z,100179.11
2018-11-11T14:23:59.233Z,100170.44
2018-11-11T14:26:28.321Z,100183.02
2018-11-11T14:28:57.165Z,100173.02
2018-11-11T14:31:26.057Z,100181.86
2018-11-11T14:33:54.943Z,100183.78
2018-11-11T14:36:23.903Z,100171.52
2018-11-11T14:38:52.849Z,100175.09
2018-11-11T14:41:21.787Z,100192.44
2018-11-11T14:43:50.732Z,100199.08
2018-11-11T14:46:19.726Z,100188.71
2018-11-11T14:48:48.664Z,100185.30
2018-11-11T14:51:17.601Z,100172.53
2018-11-11T14:53:46.519Z,100175.98
2018-11-11T14:56:15.516Z,100168.98
2018-11-11T14:58:44.617Z,100163.05
2018-11-11T15:01:13.323Z,100170.36
2018-11-11T15:03:42.221Z,100175.96
2018-11-11T15:06:11.126Z,100188.75
2018-11-11T15:08:40.128Z,100201.11
2018-11-11T15:11:09.297Z,100191.09
2018-11-11T15:13:38.284Z,100214.87
2018-11-11T15:16:07.287Z,100223.19
2018-11-11T15:18:36.266Z,100226.24
2018-11-11T15:21:05.427Z,100240.66
2018-11-11T15:23:34.271Z,100242.70
2018-11-11T15:26:03.224Z,100234.34
2018-11-11T15:28:32.195Z,100228.23
2018-11-11T15:31:01.289Z,100238.94
2018-11-11T15:33:30.100Z,100252.02
2018-11-11T15:35:59.140Z,100248.75
2018-11-11T15:38:27.976Z,100259.44
2018-11-11T15:40:56.892Z,100262.95
2018-11-11T15:43:25.867Z,100266.20
2018-11-11T15:45:54.790Z,100270.06
2018-11-11T15:48:23.763Z,100274.80
2018-11-11T15:50:52.738Z,100272.11
2018-11-11T15:53:21.722Z,100266.65
2018-11-11T15:55:50.649Z,100282.73
2018-11-11T15:58:19.616Z,100276.69
2018-11-11T16:00:48.612Z,100274.64
2018-11-11T16:03:17.622Z,100272.20
2018-11-11T16:05:46.618Z,100262.12
2018-11-11T16:08:15.537Z,100271.44
2018-11-11T16:10:44.467Z,100260.91
2018-11-11T16:13:13.473Z,100261.91
2018-11-11T16:15:42.977Z,100260.20
2018-11-11T16:18:13.216Z,100274.45
2018-11-11T16:20:42.171Z,100269.02
2018-11-11T16:23:11.353Z,100273.97
2018-11-11T16:25:40.408Z,100269.88
2018-11-11T16:28:09.267Z,100273.28
2018-11-11T16:30:38.795Z,100284.81
2018-11-11T16:33:08.916Z,100295.77
2018-11-11T16:35:37.855Z,100297.53
2018-11-11T16:38:07.005Z,100283.30
2018-11-11T16:40:37.119Z,100280.31
2018-11-11T16:43:06.177Z,100289.31
2018-11-11T16:45:35.785Z,100292.45
2018-11-11T16:48:05.156Z,100285.52
2018-11-11T16:50:34.908Z,100286.52
2018-11-11T16:53:05.344Z,100307.53
2018-11-11T16:55:35.045Z,100296.48
2018-11-11T16:58:04.059Z,100278.34
2018-11-11T17:00:34.476Z,100282.80
2018-11-11T17:03:04.312Z,100294.80
2018-11-11T17:05:34.499Z,100302.02
2018-11-11T17:08:03.467Z,100314.15
2018-11-11T17:10:33.628Z,100315.85
2018-11-11T17:13:04.448Z,100326.36
2018-11-11T17:15:34.274Z,100322.29
2018-11-11T17:18:03.249Z,100330.66
2018-11-11T17:20:32.218Z,100331.38
2018-11-11T17:23:02.808Z,100348.91
2018-11-11T17:25:31.583Z,100357.20
2018-11-11T17:28:00.603Z,100356.78
2018-11-11T17:30:30.803Z,100361.36
2018-11-11T17:33:00.542Z,100354.28
2018-11-11T17:35:29.307Z,100363.66
2018-11-11T17:37:58.205Z,100341.82
2018-11-11T17:40:28.536Z,100360.42
2018-11-11T17:42:58.092Z,100341.02
2018-11-11T17:45:27.089Z,100353.93
2018-11-11T17:47:56.174Z,100350.57
2018-11-11T17:50:26.505Z,100358.50
2018-11-11T17:52:55.435Z,100361.20
2018-11-11T17:55:25.321Z,100358.66
2018-11-11T17:57:54.191Z,100356.45
2018-11-11T18:00:24.219Z,100372.07
2018-11-11T18:02:53.432Z,100367.50
2018-11-11T18:05:23.450Z,100371.77
2018-11-11T18:07:52.367Z,100380.42
2018-11-11T18:10:22.198Z,100399.97
2018-11-11T18:12:51.067Z,100402.69
2018-11-11T18:15:24.411Z,100412.84
2018-11-11T18:17:53.356Z,100418.42
2018-11-11T18:20:26.422Z,100411.62
2018-11-11T18:22:56.145Z,100410.62
2018-11-11T18:25:25.098Z,100418.17
2018-11-11T18:27:54.149Z,100421.69
2018-11-11T18:30:25.692Z,100427.00
2018-11-11T18:32:54.681Z,100432.55
2018-11-11T18:35:23.609Z,100433.53
2018-11-11T18:37:52.858Z,100434.91
2018-11-11T18:40:26.163Z,100443.05
2018-11-11T18:42:56.167Z,100450.12
2018-11-11T18:45:29.001Z,100453.78
2018-11-11T18:47:57.950Z,100453.27
2018-11-11T18:50:28.359Z,100451.82
2018-11-11T18:52:57.276Z,100437.91
2018-11-11T18:55:26.184Z,100434.19
2018-11-11T18:57:55.187Z,100442.48
2018-11-11T19:00:41.962Z,100439.89
2018-11-11T19:03:10.932Z,100444.66
2018-11-11T19:05:39.820Z,100457.83
2018-11-11T19:08:08.746Z,100462.11
2018-11-11T19:10:37.741Z,100468.22
2018-11-11T19:13:07.820Z,100475.03
2018-11-11T19:15:36.785Z,100489.00
2018-11-11T19:18:05.767Z,100489.09
2018-11-11T19:20:34.664Z,100479.30
2018-11-11T19:23:03.608Z,100468.89
2018-11-11T19:25:32.587Z,100469.92
2018-11-11T19:28:02.390Z,100477.15
2018-11-11T19:30:32.281Z,100466.53
2018-11-11T19:33:01.101Z,100470.25
2018-11-11T19:35:30.014Z,100480.02
2018-11-11T19:37:59.308Z,100479.10
2018-11-11T19:40:29.017Z,100489.28
2018-11-11T19:42:59.270Z,100490.75
2018-11-11T19:45:29.233Z,100495.34
2018-11-11T19:47:58.165Z,100500.50
2018-11-11T19:50:27.961Z,100502.15
2018-11-11T19:52:57.546Z,100495.78
2018-11-11T19:55:26.538Z,100498.82
2018-11-11T19:57:55.394Z,100499.41
2018-11-11T20:00:28.888Z,100501.80
2018-11-11T20:02:58.811Z,100506.69
2018-11-11T20:05:27.711Z,100505.77
2018-11-11T20:07:57.660Z,100510.10
2018-11-11T20:10:27.330Z,100518.53
2018-11-11T20:12:56.451Z,100527.02
2018-11-11T20:15:29.349Z,100528.19
2018-11-11T20:17:58.300Z,100541.60
2018-11-11T20:20:38.047Z,100535.92
2018-11-11T20:23:07.039Z,100534.21
2018-11-11T20:25:35.988Z,100543.64
2018-11-11T20:28:05.223Z,100544.34
2018-11-11T20:30:35.812Z,100557.55
2018-11-11T20:33:05.204Z,100553.98
2018-11-11T20:35:34.503Z,100565.18
2018-11-11T20:38:03.562Z,100575.42
2018-11-11T20:40:32.499Z,100580.13
2018-11-11T20:43:01.483Z,100574.09
2018-11-11T20:45:31.756Z,100574.74
2018-11-11T20:48:00.689Z,100576.41
2018-11-11T20:50:30.843Z,100584.80
2018-11-11T20:53:01.145Z,100586.34
2018-11-11T20:55:30.084Z,100589.72
2018-11-11T20:57:59.114Z,100593.50
2018-11-11T21:00:31.086Z,100592.78
2018-11-11T21:03:00.020Z,100593.89
2018-11-11T21:05:29.406Z,100587.25
2018-11-11T21:07:58.433Z,100590.81
2018-11-11T21:10:28.420Z,100593.39
2018-11-11T21:12:57.735Z,100596.83
2018-11-11T21:15:27.910Z,100604.83
2018-11-11T21:17:56.875Z,100608.97
2018-11-11T21:20:29.885Z,100614.69
2018-11-11T21:22:58.919Z,100622.22
2018-11-11T21:25:27.867Z,100621.08
2018-11-11T21:27:56.768Z,100615.16
2018-11-11T21:30:26.888Z,100612.23
2018-11-11T21:32:55.828Z,100608.23
2018-11-11T21:35:24.755Z,100606.10
2018-11-11T21:37:53.819Z,100609.75
2018-11-11T21:40:23.679Z,100627.64
2018-11-11T21:42:53.389Z,100610.92
2018-11-11T21:45:23.340Z,100625.69
2018-11-11T21:47:52.268Z,100630.63
2018-11-11T21:50:22.525Z,100639.48
2018-11-11T21:53:13.829Z,100649.20
2018-11-11T21:55:42.716Z,100652.37
2018-11-11T21:58:11.614Z,100655.41
2018-11-11T22:00:40.550Z,100662.41
2018-11-11T22:03:09.682Z,100670.90
2018-11-11T22:05:38.456Z,100667.91
2018-11-11T22:08:07.455Z,100661.37
2018-11-11T22:10:36.379Z,100652.73
2018-11-11T22:13:05.868Z,100643.39
2018-11-11T22:15:34.773Z,100648.45
2018-11-11T22:18:03.709Z,100657.22
2018-11-11T22:20:32.633Z,100664.44
2018-11-11T22:23:01.548Z,100674.28
2018-11-11T22:25:30.506Z,100676.05
2018-11-11T22:27:59.400Z,100683.31
2018-11-11T22:30:28.388Z,100680.74
2018-11-11T22:32:57.255Z,100673.20
2018-11-11T22:35:26.180Z,100674.29
2018-11-11T22:37:55.164Z,100677.27
2018-11-11T22:40:24.029Z,100684.31
2018-11-11T22:42:52.935Z,100692.80
2018-11-11T22:45:21.864Z,100698.30
2018-11-11T22:47:50.795Z,100707.29
2018-11-11T22:50:20.121Z,100712.48
2018-11-11T22:52:49.028Z,100707.42
2018-11-11T22:55:17.935Z,100705.84
2018-11-11T22:57:46.870Z,100709.98
2018-11-11T23:00:29.384Z,100706.11
2018-11-11T23:02:58.375Z,100709.13
2018-11-11T23:05:27.409Z,100705.92
2018-11-11T23:07:56.318Z,100715.27
2018-11-11T23:10:25.257Z,100724.30
2018-11-11T23:12:54.214Z,100737.58
2018-11-11T23:15:23.441Z,100746.42
2018-11-11T23:17:52.366Z,100759.98
2018-11-11T23:20:21.628Z,100761.02
2018-11-11T23:22:50.555Z,100746.33
2018-11-11T23:25:19.723Z,100749.18
2018-11-11T23:27:48.643Z,100753.61
2018-11-11T23:30:21.721Z,100752.33
2018-11-11T23:32:51.019Z,100742.26
2018-11-11T23:35:19.914Z,100748.20
2018-11-11T23:37:48.845Z,100757.53
2018-11-11T23:40:18.921Z,100746.25
2018-11-11T23:42:48.506Z,100754.82
2018-11-11T23:45:17.431Z,100750.31
2018-11-11T23:47:46.369Z,100745.73
2018-11-11T23:50:17.436Z,100736.73
2018-11-11T23:52:46.781Z,100737.45
2018-11-11T23:55:17.614Z,100733.96
2018-11-11T23:57:46.521Z,100734.32
